sensor_id;sensor_type;location;lat;lon;timestamp;pressure;altitude;pressure_sealevel;temperature;humidity
68855;BME280;69984;-43.570;172.580;2024-03-07T00:00:13;101193.28;;;23.41;60.45
68855;BME280;69984;-43.570;172.580;2024-03-07T00:02:49;101186.09;;;23.66;60.21
68855;BME280;69984;-43.570;172.580;2024-03-07T00:05:18;101172.06;;;23.71;59.71
68855;BME280;69984;-43.570;172.580;2024-03-07T00:07:46;101167.16;;;23.86;59.52
68855;BME280;69984;-43.570;172.580;2024-03-07T00:10:13;101173.69;;;23.72;57.68
68855;BME280;69984;-43.570;172.580;2024-03-07T00:12:41;101166.59;;;24.02;58.15
68855;BME280;69984;-43.570;172.580;2024-03-07T00:15:10;101170.19;;;24.14;54.24
68855;BME280;69984;-43.570;172.580;2024-03-07T00:17:38;101163.84;;;24.09;53.96
68855;BME280;69984;-43.570;172.580;2024-03-07T00:20:06;101157.09;;;24.43;44.99
68855;BME280;69984;-43.570;172.580;2024-03-07T00:22:41;101151.97;;;24.89;49.46
68855;BME280;69984;-43.570;172.580;2024-03-07T00:25:08;101147.06;;;24.86;47.38
68855;BME280;69984;-43.570;172.580;2024-03-07T00:27:36;101154.19;;;25.33;47.37
68855;BME280;69984;-43.570;172.580;2024-03-07T00:30:08;101126.59;;;25.56;47.89
68855;BME280;69984;-43.570;172.580;2024-03-07T00:32:35;101125.41;;;25.87;45.91
68855;BME280;69984;-43.570;172.580;2024-03-07T00:35:02;101127.13;;;25.93;44.27
68855;BME280;69984;-43.570;172.580;2024-03-07T00:37:30;101114.97;;;26.14;44.79
68855;BME280;69984;-43.570;172.580;2024-03-07T00:39:59;101113.22;;;26.19;43.77
68855;BME280;69984;-43.570;172.580;2024-03-07T00:42:26;101104.72;;;26.39;42.62
68855;BME280;69984;-43.570;172.580;2024-03-07T00:44:55;101097.56;;;26.05;43.73
68855;BME280;69984;-43.570;172.580;2024-03-07T00:47:22;101098.94;;;26.07;43.74
68855;BME280;69984;-43.570;172.580;2024-03-07T00:49:49;101092.06;;;26.51;43.08
68855;BME280;69984;-43.570;172.580;2024-03-07T00:52:16;101082.47;;;26.84;42.34
68855;BME280;69984;-43.570;172.580;2024-03-07T00:54:43;101082.16;;;26.68;44.84
68855;BME280;69984;-43.570;172.580;2024-03-07T00:57:10;101081.09;;;27.14;42.82
68855;BME280;69984;-43.570;172.580;2024-03-07T00:59:37;101066.31;;;27.17;41.25
68855;BME280;69984;-43.570;172.580;2024-03-07T01:02:04;101052.38;;;26.87;43.47
68855;BME280;69984;-43.570;172.580;2024-03-07T01:04:31;101058.75;;;26.24;42.99
68855;BME280;69984;-43.570;172.580;2024-03-07T01:07:00;101050.56;;;26.75;44.31
68855;BME280;69984;-43.570;172.580;2024-03-07T01:09:27;101043.41;;;27.14;42.03
68855;BME280;69984;-43.570;172.580;2024-03-07T01:11:57;101040.06;;;26.74;41.17
68855;BME280;69984;-43.570;172.580;2024-03-07T01:14:25;101041.22;;;26.50;41.74
68855;BME280;69984;-43.570;172.580;2024-03-07T01:16:53;101033.81;;;26.57;41.34
68855;BME280;69984;-43.570;172.580;2024-03-07T01:19:20;101033.81;;;27.02;42.02
68855;BME280;69984;-43.570;172.580;2024-03-07T01:21:47;101030.94;;;26.92;40.69
68855;BME280;69984;-43.570;172.580;2024-03-07T01:24:14;101033.34;;;26.88;43.12
68855;BME280;69984;-43.570;172.580;2024-03-07T01:26:44;101027.72;;;27.45;40.85
68855;BME280;69984;-43.570;172.580;2024-03-07T01:29:11;101020.56;;;27.34;41.04
68855;BME280;69984;-43.570;172.580;2024-03-07T01:31:38;101026.00;;;27.55;37.59
68855;BME280;69984;-43.570;172.580;2024-03-07T01:34:05;101012.72;;;27.32;39.52
68855;BME280;69984;-43.570;172.580;2024-03-07T01:36:31;100997.97;;;27.18;38.99
68855;BME280;69984;-43.570;172.580;2024-03-07T01:38:58;100993.69;;;26.84;36.88
68855;BME280;69984;-43.570;172.580;2024-03-07T01:41:25;100994.88;;;27.09;38.46
68855;BME280;69984;-43.570;172.580;2024-03-07T01:43:52;100992.63;;;27.01;37.40
68855;BME280;69984;-43.570;172.580;2024-03-07T01:46:19;100979.19;;;27.01;35.83
68855;BME280;69984;-43.570;172.580;2024-03-07T01:48:46;100968.50;;;27.45;35.42
68855;BME280;69984;-43.570;172.580;2024-03-07T01:51:15;100963.88;;;27.62;33.40
68855;BME280;69984;-43.570;172.580;2024-03-07T01:53:42;100964.34;;;27.59;35.10
68855;BME280;69984;-43.570;172.580;2024-03-07T01:56:09;100960.59;;;27.82;36.92
68855;BME280;69984;-43.570;172.580;2024-03-07T01:58:37;100955.84;;;28.42;37.03
68855;BME280;69984;-43.570;172.580;2024-03-07T02:01:04;100948.53;;;28.69;35.64
68855;BME280;69984;-43.570;172.580;2024-03-07T02:03:31;100943.22;;;28.48;36.07
68855;BME280;69984;-43.570;172.580;2024-03-07T02:05:58;100945.03;;;29.11;35.53
68855;BME280;69984;-43.570;172.580;2024-03-07T02:08:25;100934.69;;;28.98;35.17
68855;BME280;69984;-43.570;172.580;2024-03-07T02:10:52;100920.81;;;28.79;35.47
68855;BME280;69984;-43.570;172.580;2024-03-07T02:13:19;100909.41;;;29.09;34.40
68855;BME280;69984;-43.570;172.580;2024-03-07T02:15:46;100908.53;;;29.03;36.25
68855;BME280;69984;-43.570;172.580;2024-03-07T02:18:14;100901.00;;;29.10;33.04
68855;BME280;69984;-43.570;172.580;2024-03-07T02:20:44;100893.31;;;29.29;34.50
68855;BME280;69984;-43.570;172.580;2024-03-07T02:23:14;100906.06;;;29.44;34.39
68855;BME280;69984;-43.570;172.580;2024-03-07T02:25:41;100903.34;;;29.39;32.76
68855;BME280;69984;-43.570;172.580;2024-03-07T02:28:08;100903.97;;;29.61;33.86
68855;BME280;69984;-43.570;172.580;2024-03-07T02:30:35;100897.28;;;29.89;32.84
68855;BME280;69984;-43.570;172.580;2024-03-07T02:33:03;100890.19;;;28.26;34.46
68855;BME280;69984;-43.570;172.580;2024-03-07T02:35:33;100875.91;;;28.63;34.45
68855;BME280;69984;-43.570;172.580;2024-03-07T02:38:04;100876.09;;;28.88;35.84
68855;BME280;69984;-43.570;172.580;2024-03-07T02:40:32;100881.72;;;28.87;37.25
68855;BME280;69984;-43.570;172.580;2024-03-07T02:42:59;100868.56;;;27.95;41.14
68855;BME280;69984;-43.570;172.580;2024-03-07T02:45:26;100863.66;;;28.50;41.59
68855;BME280;69984;-43.570;172.580;2024-03-07T02:47:53;100863.78;;;29.17;41.28
68855;BME280;69984;-43.570;172.580;2024-03-07T02:50:20;100867.38;;;28.76;42.99
68855;BME280;69984;-43.570;172.580;2024-03-07T02:52:50;100857.56;;;27.96;43.30
68855;BME280;69984;-43.570;172.580;2024-03-07T02:55:18;100850.06;;;28.03;44.87
68855;BME280;69984;-43.570;172.580;2024-03-07T02:57:46;100840.00;;;27.62;45.79
68855;BME280;69984;-43.570;172.580;2024-03-07T03:00:13;100836.31;;;27.24;46.48
68855;BME280;69984;-43.570;172.580;2024-03-07T03:02:47;100842.25;;;27.05;47.77
68855;BME280;69984;-43.570;172.580;2024-03-07T03:05:15;100832.47;;;26.77;49.45
68855;BME280;69984;-43.570;172.580;2024-03-07T03:07:42;100838.34;;;26.74;50.52
68855;BME280;69984;-43.570;172.580;2024-03-07T03:10:23;100833.50;;;26.76;44.33
68855;BME280;69984;-43.570;172.580;2024-03-07T03:12:58;100830.53;;;26.39;46.43
68855;BME280;69984;-43.570;172.580;2024-03-07T03:15:27;100830.34;;;26.24;45.52
68855;BME280;69984;-43.570;172.580;2024-03-07T03:17:55;100831.19;;;26.13;47.89
68855;BME280;69984;-43.570;172.580;2024-03-07T03:20:26;100837.28;;;25.92;47.45
68855;BME280;69984;-43.570;172.580;2024-03-07T03:23:00;100836.84;;;26.28;46.93
68855;BME280;69984;-43.570;172.580;2024-03-07T03:25:29;100840.19;;;26.90;44.12
68855;BME280;69984;-43.570;172.580;2024-03-07T03:27:58;100834.50;;;26.70;45.19
68855;BME280;69984;-43.570;172.580;2024-03-07T03:30:25;100843.75;;;26.96;43.87
68855;BME280;69984;-43.570;172.580;2024-03-07T03:32:52;100836.09;;;27.09;45.44
68855;BME280;69984;-43.570;172.580;2024-03-07T03:35:19;100839.09;;;27.56;40.67
68855;BME280;69984;-43.570;172.580;2024-03-07T03:37:46;100828.00;;;26.66;44.22
68855;BME280;69984;-43.570;172.580;2024-03-07T03:40:13;100825.09;;;27.33;44.40
68855;BME280;69984;-43.570;172.580;2024-03-07T03:42:41;100826.22;;;27.37;43.61
68855;BME280;69984;-43.570;172.580;2024-03-07T03:45:09;100817.63;;;27.40;44.49
68855;BME280;69984;-43.570;172.580;2024-03-07T03:47:42;100816.09;;;28.02;42.88
68855;BME280;69984;-43.570;172.580;2024-03-07T03:50:11;100809.06;;;27.96;42.11
68855;BME280;69984;-43.570;172.580;2024-03-07T03:52:39;100804.59;;;28.07;41.07
68855;BME280;69984;-43.570;172.580;2024-03-07T03:55:07;100800.63;;;28.19;41.12
68855;BME280;69984;-43.570;172.580;2024-03-07T03:57:42;100814.03;;;28.46;39.03
68855;BME280;69984;-43.570;172.580;2024-03-07T04:00:10;100806.53;;;28.58;38.48
68855;BME280;69984;-43.570;172.580;2024-03-07T04:02:40;100809.72;;;28.97;38.55
68855;BME280;69984;-43.570;172.580;2024-03-07T04:05:10;100804.38;;;28.55;38.46
68855;BME280;69984;-43.570;172.580;2024-03-07T04:07:37;100796.75;;;28.47;40.19
68855;BME280;69984;-43.570;172.580;2024-03-07T04:10:05;100798.84;;;29.54;36.30
68855;BME280;69984;-43.570;172.580;2024-03-07T04:12:40;100804.03;;;30.06;36.05
68855;BME280;69984;-43.570;172.580;2024-03-07T04:15:09;100807.72;;;30.71;34.99
68855;BME280;69984;-43.570;172.580;2024-03-07T04:17:37;100802.38;;;29.65;36.39
68855;BME280;69984;-43.570;172.580;2024-03-07T04:20:05;100801.63;;;29.90;27.93
68855;BME280;69984;-43.570;172.580;2024-03-07T04:22:32;100798.81;;;29.39;27.56
68855;BME280;69984;-43.570;172.580;2024-03-07T04:25:03;100794.78;;;29.57;26.99
68855;BME280;69984;-43.570;172.580;2024-03-07T04:27:30;100800.88;;;29.12;27.02
68855;BME280;69984;-43.570;172.580;2024-03-07T04:29:57;100804.78;;;29.41;27.12
68855;BME280;69984;-43.570;172.580;2024-03-07T04:32:24;100805.25;;;29.28;27.31
68855;BME280;69984;-43.570;172.580;2024-03-07T04:34:51;100800.44;;;29.30;27.58
68855;BME280;69984;-43.570;172.580;2024-03-07T04:37:18;100793.53;;;28.50;27.60
68855;BME280;69984;-43.570;172.580;2024-03-07T04:39:45;100785.31;;;28.25;27.72
68855;BME280;69984;-43.570;172.580;2024-03-07T04:42:12;100791.38;;;27.78;28.49
68855;BME280;69984;-43.570;172.580;2024-03-07T04:44:39;100784.00;;;28.01;28.21
68855;BME280;69984;-43.570;172.580;2024-03-07T04:47:06;100791.72;;;28.19;28.06
68855;BME280;69984;-43.570;172.580;2024-03-07T04:49:34;100789.91;;;27.98;27.78
68855;BME280;69984;-43.570;172.580;2024-03-07T04:52:02;100786.13;;;27.62;28.43
68855;BME280;69984;-43.570;172.580;2024-03-07T04:54:31;100791.03;;;27.70;28.34
68855;BME280;69984;-43.570;172.580;2024-03-07T04:57:00;100786.72;;;27.69;28.83
68855;BME280;69984;-43.570;172.580;2024-03-07T04:59:28;100781.00;;;27.92;29.11
68855;BME280;69984;-43.570;172.580;2024-03-07T05:01:55;100783.56;;;27.77;28.96
68855;BME280;69984;-43.570;172.580;2024-03-07T05:04:22;100779.25;;;28.08;28.56
68855;BME280;69984;-43.570;172.580;2024-03-07T05:06:49;100792.34;;;27.67;28.90
68855;BME280;69984;-43.570;172.580;2024-03-07T05:09:16;100779.25;;;28.50;28.12
68855;BME280;69984;-43.570;172.580;2024-03-07T05:11:51;100778.53;;;28.22;28.49
68855;BME280;69984;-43.570;172.580;2024-03-07T05:14:19;100782.31;;;27.90;29.32
68855;BME280;69984;-43.570;172.580;2024-03-07T05:16:46;100805.28;;;27.65;29.46
68855;BME280;69984;-43.570;172.580;2024-03-07T05:19:34;100793.25;;;27.78;28.92
68855;BME280;69984;-43.570;172.580;2024-03-07T05:22:02;100789.09;;;27.97;28.84
68855;BME280;69984;-43.570;172.580;2024-03-07T05:24:31;100790.19;;;28.70;28.84
68855;BME280;69984;-43.570;172.580;2024-03-07T05:27:02;100807.47;;;28.79;28.01
68855;BME280;69984;-43.570;172.580;2024-03-07T05:29:29;100800.22;;;29.52;27.13
68855;BME280;69984;-43.570;172.580;2024-03-07T05:32:23;100801.78;;;29.33;27.63
68855;BME280;69984;-43.570;172.580;2024-03-07T05:34:50;100784.22;;;28.21;28.51
68855;BME280;69984;-43.570;172.580;2024-03-07T05:37:17;100797.97;;;28.24;28.19
68855;BME280;69984;-43.570;172.580;2024-03-07T05:39:44;100787.44;;;28.18;28.61
68855;BME280;69984;-43.570;172.580;2024-03-07T05:42:11;100784.38;;;28.51;28.59
68855;BME280;69984;-43.570;172.580;2024-03-07T05:44:40;100799.59;;;29.30;28.04
68855;BME280;69984;-43.570;172.580;2024-03-07T05:47:08;100795.06;;;28.36;28.57
68855;BME280;69984;-43.570;172.580;2024-03-07T05:49:36;100796.41;;;28.02;29.31
68855;BME280;69984;-43.570;172.580;2024-03-07T05:52:06;100795.28;;;27.66;29.21
68855;BME280;69984;-43.570;172.580;2024-03-07T05:54:33;100782.69;;;28.40;28.72
68855;BME280;69984;-43.570;172.580;2024-03-07T05:57:00;100773.06;;;27.80;28.97
68855;BME280;69984;-43.570;172.580;2024-03-07T05:59:27;100777.00;;;28.32;28.38
68855;BME280;69984;-43.570;172.580;2024-03-07T06:02:00;100772.81;;;27.28;30.16
68855;BME280;69984;-43.570;172.580;2024-03-07T06:04:27;100770.97;;;25.19;32.31
68855;BME280;69984;-43.570;172.580;2024-03-07T06:06:55;100765.88;;;24.19;34.42
68855;BME280;69984;-43.570;172.580;2024-03-07T06:09:22;100782.50;;;23.68;36.00
68855;BME280;69984;-43.570;172.580;2024-03-07T06:11:49;100783.84;;;23.29;36.01
68855;BME280;69984;-43.570;172.580;2024-03-07T06:14:16;100790.38;;;23.22;36.47
68855;BME280;69984;-43.570;172.580;2024-03-07T06:16:44;100789.47;;;24.11;35.49
68855;BME280;69984;-43.570;172.580;2024-03-07T06:19:11;100796.03;;;26.31;32.43
68855;BME280;69984;-43.570;172.580;2024-03-07T06:21:41;100789.63;;;26.54;31.16
68855;BME280;69984;-43.570;172.580;2024-03-07T06:24:08;100793.00;;;25.77;32.43
68855;BME280;69984;-43.570;172.580;2024-03-07T06:26:38;100794.00;;;26.38;32.06
68855;BME280;69984;-43.570;172.580;2024-03-07T06:29:26;100799.75;;;27.28;30.76
68855;BME280;69984;-43.570;172.580;2024-03-07T06:31:55;100816.75;;;27.83;29.58
68855;BME280;69984;-43.570;172.580;2024-03-07T06:34:22;100812.59;;;28.02;29.40
68855;BME280;69984;-43.570;172.580;2024-03-07T06:36:49;100814.97;;;27.93;29.46
68855;BME280;69984;-43.570;172.580;2024-03-07T06:39:16;100826.88;;;28.02;29.34
68855;BME280;69984;-43.570;172.580;2024-03-07T06:41:48;100822.47;;;28.65;28.97
68855;BME280;69984;-43.570;172.580;2024-03-07T06:44:15;100817.25;;;27.53;29.74
68855;BME280;69984;-43.570;172.580;2024-03-07T06:46:43;100816.00;;;27.60;29.68
68855;BME280;69984;-43.570;172.580;2024-03-07T06:49:12;100827.38;;;26.25;31.76
68855;BME280;69984;-43.570;172.580;2024-03-07T06:51:43;100831.66;;;25.93;32.31
68855;BME280;69984;-43.570;172.580;2024-03-07T06:54:10;100831.69;;;24.85;33.58
68855;BME280;69984;-43.570;172.580;2024-03-07T06:56:37;100828.72;;;24.05;35.16
68855;BME280;69984;-43.570;172.580;2024-03-07T06:59:05;100826.97;;;23.99;35.52
68855;BME280;69984;-43.570;172.580;2024-03-07T07:01:33;100831.78;;;23.79;36.23
68855;BME280;69984;-43.570;172.580;2024-03-07T07:04:00;100837.63;;;23.10;36.99
68855;BME280;69984;-43.570;172.580;2024-03-07T07:06:29;100843.50;;;23.00;37.48
68855;BME280;69984;-43.570;172.580;2024-03-07T07:08:57;100833.09;;;22.92;38.09
68855;BME280;69984;-43.570;172.580;2024-03-07T07:11:25;100841.19;;;22.61;38.75
68855;BME280;69984;-43.570;172.580;2024-03-07T07:13:53;100841.91;;;22.50;39.26
68855;BME280;69984;-43.570;172.580;2024-03-07T07:16:20;100846.88;;;22.46;39.85
68855;BME280;69984;-43.570;172.580;2024-03-07T07:18:48;100843.50;;;22.32;39.20
68855;BME280;69984;-43.570;172.580;2024-03-07T07:21:14;100844.53;;;22.31;39.53
68855;BME280;69984;-43.570;172.580;2024-03-07T07:23:42;100847.44;;;22.30;39.45
68855;BME280;69984;-43.570;172.580;2024-03-07T07:26:09;100853.59;;;22.06;39.96
68855;BME280;69984;-43.570;172.580;2024-03-07T07:28:36;100864.22;;;22.12;40.38
68855;BME280;69984;-43.570;172.580;2024-03-07T07:31:04;100863.59;;;22.10;40.06
68855;BME280;69984;-43.570;172.580;2024-03-07T07:33:31;100869.06;;;22.22;40.07
68855;BME280;69984;-43.570;172.580;2024-03-07T07:35:58;100880.22;;;22.12;40.28
68855;BME280;69984;-43.570;172.580;2024-03-07T07:38:25;100876.75;;;22.12;40.60
68855;BME280;69984;-43.570;172.580;2024-03-07T07:40:52;100877.25;;;21.89;41.80
68855;BME280;69984;-43.570;172.580;2024-03-07T07:43:19;100877.22;;;21.58;42.40
68855;BME280;69984;-43.570;172.580;2024-03-07T07:45:46;100882.03;;;21.42;42.64
68855;BME280;69984;-43.570;172.580;2024-03-07T07:48:13;100897.00;;;21.37;43.14
68855;BME280;69984;-43.570;172.580;2024-03-07T07:50:41;100900.94;;;21.28;43.45
68855;BME280;69984;-43.570;172.580;2024-03-07T07:53:08;100892.72;;;21.29;43.59
68855;BME280;69984;-43.570;172.580;2024-03-07T07:55:36;100910.00;;;21.07;44.20
68855;BME280;69984;-43.570;172.580;2024-03-07T07:58:04;100902.63;;;20.96;44.58
68855;BME280;69984;-43.570;172.580;2024-03-07T08:00:31;100915.13;;;21.02;44.56
68855;BME280;69984;-43.570;172.580;2024-03-07T08:03:05;100903.03;;;21.00;44.58
68855;BME280;69984;-43.570;172.580;2024-03-07T08:05:36;100893.84;;;20.89;45.44
68855;BME280;69984;-43.570;172.580;2024-03-07T08:08:05;100893.41;;;20.92;45.29
68855;BME280;69984;-43.570;172.580;2024-03-07T08:10:37;100899.97;;;20.83;46.34
68855;BME280;69984;-43.570;172.580;2024-03-07T08:13:05;100911.06;;;20.67;46.99
68855;BME280;69984;-43.570;172.580;2024-03-07T08:15:36;100911.28;;;20.32;47.59
68855;BME280;69984;-43.570;172.580;2024-03-07T08:18:04;100909.63;;;20.44;47.11
68855;BME280;69984;-43.570;172.580;2024-03-07T08:20:36;100905.75;;;20.47;47.04
68855;BME280;69984;-43.570;172.580;2024-03-07T08:23:04;100897.13;;;20.38;47.75
68855;BME280;69984;-43.570;172.580;2024-03-07T08:25:30;100891.97;;;20.24;48.25
68855;BME280;69984;-43.570;172.580;2024-03-07T08:27:58;100896.28;;;20.25;48.36
68855;BME280;69984;-43.570;172.580;2024-03-07T08:30:25;100903.28;;;20.39;48.18
68855;BME280;69984;-43.570;172.580;2024-03-07T08:32:56;100899.19;;;20.36;48.23
68855;BME280;69984;-43.570;172.580;2024-03-07T08:35:23;100903.47;;;20.31;48.47
68855;BME280;69984;-43.570;172.580;2024-03-07T08:37:52;100909.22;;;20.41;48.35
68855;BME280;69984;-43.570;172.580;2024-03-07T08:40:21;100906.56;;;20.48;48.16
68855;BME280;69984;-43.570;172.580;2024-03-07T08:42:50;100921.47;;;20.16;49.03
68855;BME280;69984;-43.570;172.580;2024-03-07T08:45:18;100926.78;;;20.22;49.54
68855;BME280;69984;-43.570;172.580;2024-03-07T08:47:50;100933.66;;;19.84;49.84
68855;BME280;69984;-43.570;172.580;2024-03-07T08:50:17;100938.72;;;19.72;50.21
68855;BME280;69984;-43.570;172.580;2024-03-07T08:52:45;100942.97;;;19.67;51.11
68855;BME280;69984;-43.570;172.580;2024-03-07T08:55:20;100940.94;;;19.62;50.81
68855;BME280;69984;-43.570;172.580;2024-03-07T08:57:47;100948.38;;;19.80;49.95
68855;BME280;69984;-43.570;172.580;2024-03-07T09:00:16;100951.03;;;19.80;50.20
68855;BME280;69984;-43.570;172.580;2024-03-07T09:02:57;100956.97;;;19.88;49.51
68855;BME280;69984;-43.570;172.580;2024-03-07T09:05:24;100951.25;;;19.91;49.87
68855;BME280;69984;-43.570;172.580;2024-03-07T09:07:52;100953.28;;;19.83;50.37
68855;BME280;69984;-43.570;172.580;2024-03-07T09:10:20;100954.91;;;19.77;50.48
68855;BME280;69984;-43.570;172.580;2024-03-07T09:12:49;100950.47;;;19.91;49.66
68855;BME280;69984;-43.570;172.580;2024-03-07T09:15:16;100941.56;;;19.71;50.63
68855;BME280;69984;-43.570;172.580;2024-03-07T09:17:45;100943.84;;;19.74;51.09
68855;BME280;69984;-43.570;172.580;2024-03-07T09:20:13;100940.50;;;19.59;51.57
68855;BME280;69984;-43.570;172.580;2024-03-07T09:22:45;100932.34;;;19.67;50.93
68855;BME280;69984;-43.570;172.580;2024-03-07T09:25:14;100938.25;;;19.56;51.25
68855;BME280;69984;-43.570;172.580;2024-03-07T09:27:42;100937.53;;;19.40;52.08
68855;BME280;69984;-43.570;172.580;2024-03-07T09:30:10;100936.16;;;19.44;52.09
68855;BME280;69984;-43.570;172.580;2024-03-07T09:32:47;100937.41;;;19.49;52.52
68855;BME280;69984;-43.570;172.580;2024-03-07T09:35:15;100944.31;;;19.43;52.35
68855;BME280;69984;-43.570;172.580;2024-03-07T09:37:43;100945.84;;;19.59;51.91
68855;BME280;69984;-43.570;172.580;2024-03-07T09:40:12;100936.22;;;19.64;51.95
68855;BME280;69984;-43.570;172.580;2024-03-07T09:42:43;100944.75;;;19.47;53.02
68855;BME280;69984;-43.570;172.580;2024-03-07T09:45:20;100948.34;;;19.39;53.05
68855;BME280;69984;-43.570;172.580;2024-03-07T09:47:50;100940.34;;;19.32;53.19
68855;BME280;69984;-43.570;172.580;2024-03-07T09:50:19;100948.16;;;19.40;52.92
68855;BME280;69984;-43.570;172.580;2024-03-07T09:52:49;100942.25;;;19.11;53.96
68855;BME280;69984;-43.570;172.580;2024-03-07T09:55:17;100944.69;;;19.40;53.20
68855;BME280;69984;-43.570;172.580;2024-03-07T09:57:46;100943.25;;;19.03;54.01
68855;BME280;69984;-43.570;172.580;2024-03-07T10:00:17;100944.91;;;19.11;54.08
68855;BME280;69984;-43.570;172.580;2024-03-07T10:03:09;100942.31;;;18.89;55.11
68855;BME280;69984;-43.570;172.580;2024-03-07T10:05:38;100950.81;;;18.78;55.57
68855;BME280;69984;-43.570;172.580;2024-03-07T10:08:05;100961.00;;;18.75;56.50
68855;BME280;69984;-43.570;172.580;2024-03-07T10:10:33;100955.44;;;18.70;58.48
68855;BME280;69984;-43.570;172.580;2024-03-07T10:13:00;100964.88;;;18.51;60.29
68855;BME280;69984;-43.570;172.580;2024-03-07T10:15:31;100963.47;;;18.55;59.78
68855;BME280;69984;-43.570;172.580;2024-03-07T10:17:58;100959.84;;;18.41;59.66
68855;BME280;69984;-43.570;172.580;2024-03-07T10:20:26;100960.81;;;18.55;59.75
68855;BME280;69984;-43.570;172.580;2024-03-07T10:22:54;100963.94;;;18.44;60.19
68855;BME280;69984;-43.570;172.580;2024-03-07T10:25:22;100968.91;;;18.47;59.83
68855;BME280;69984;-43.570;172.580;2024-03-07T10:27:52;100968.03;;;18.40;59.64
68855;BME280;69984;-43.570;172.580;2024-03-07T10:30:19;100965.56;;;18.60;59.58
68855;BME280;69984;-43.570;172.580;2024-03-07T10:32:55;100962.13;;;18.44;60.10
68855;BME280;69984;-43.570;172.580;2024-03-07T10:35:23;100966.97;;;17.84;62.17
68855;BME280;69984;-43.570;172.580;2024-03-07T10:37:55;100965.63;;;17.73;63.66
68855;BME280;69984;-43.570;172.580;2024-03-07T10:40:24;100965.44;;;17.75;64.48
68855;BME280;69984;-43.570;172.580;2024-03-07T10:42:55;100976.44;;;17.72;64.49
68855;BME280;69984;-43.570;172.580;2024-03-07T10:45:23;100967.47;;;16.77;70.01
68855;BME280;69984;-43.570;172.580;2024-03-07T10:47:55;100970.38;;;16.82;72.52
68855;BME280;69984;-43.570;172.580;2024-03-07T10:56:07;100991.59;;;17.34;69.58
68855;BME280;69984;-43.570;172.580;2024-03-07T10:58:58;100999.16;;;17.66;68.24
68855;BME280;69984;-43.570;172.580;2024-03-07T11:01:32;100997.16;;;17.54;68.65
68855;BME280;69984;-43.570;172.580;2024-03-07T11:04:03;101002.44;;;17.39;69.55
68855;BME280;69984;-43.570;172.580;2024-03-07T11:06:32;100997.44;;;17.44;69.89
68855;BME280;69984;-43.570;172.580;2024-03-07T11:09:03;101005.75;;;17.56;69.20
68855;BME280;69984;-43.570;172.580;2024-03-07T11:11:38;101015.91;;;17.67;69.14
68855;BME280;69984;-43.570;172.580;2024-03-07T11:14:11;101014.63;;;17.48;70.14
68855;BME280;69984;-43.570;172.580;2024-03-07T11:16:41;101034.09;;;17.55;69.68
68855;BME280;69984;-43.570;172.580;2024-03-07T11:19:31;101024.56;;;17.46;70.16
68855;BME280;69984;-43.570;172.580;2024-03-07T11:22:03;101037.34;;;17.42;71.17
68855;BME280;69984;-43.570;172.580;2024-03-07T11:24:44;101033.06;;;17.41;71.82
68855;BME280;69984;-43.570;172.580;2024-03-07T11:27:28;101035.16;;;17.46;71.91
68855;BME280;69984;-43.570;172.580;2024-03-07T11:29:59;101036.19;;;17.60;70.71
68855;BME280;69984;-43.570;172.580;2024-03-07T11:32:35;101041.25;;;17.69;70.27
68855;BME280;69984;-43.570;172.580;2024-03-07T11:35:16;101048.78;;;18.02;67.93
68855;BME280;69984;-43.570;172.580;2024-03-07T11:38:00;101062.09;;;18.52;64.85
68855;BME280;69984;-43.570;172.580;2024-03-07T11:42:57;101069.06;;;18.53;64.35
68855;BME280;69984;-43.570;172.580;2024-03-07T11:45:31;101090.84;;;18.34;65.47
68855;BME280;69984;-43.570;172.580;2024-03-07T11:48:18;101088.78;;;18.00;68.24
68855;BME280;69984;-43.570;172.580;2024-03-07T11:50:46;101084.31;;;17.86;71.04
68855;BME280;69984;-43.570;172.580;2024-03-07T11:53:13;101079.81;;;17.72;73.54
68855;BME280;69984;-43.570;172.580;2024-03-07T11:55:40;101087.25;;;17.54;79.30
68855;BME280;69984;-43.570;172.580;2024-03-07T11:58:18;101105.22;;;17.29;85.60
68855;BME280;69984;-43.570;172.580;2024-03-07T12:00:49;101105.31;;;16.98;92.11
68855;BME280;69984;-43.570;172.580;2024-03-07T12:03:19;101100.16;;;16.96;95.27
68855;BME280;69984;-43.570;172.580;2024-03-07T12:05:52;101103.47;;;16.98;97.81
68855;BME280;69984;-43.570;172.580;2024-03-07T12:08:19;101101.41;;;16.86;100.00
68855;BME280;69984;-43.570;172.580;2024-03-07T12:10:49;101106.69;;;16.63;100.00
68855;BME280;69984;-43.570;172.580;2024-03-07T12:13:20;101124.13;;;16.49;100.00
68855;BME280;69984;-43.570;172.580;2024-03-07T12:15:47;101121.75;;;16.24;100.00
68855;BME280;69984;-43.570;172.580;2024-03-07T12:18:18;101120.63;;;16.10;100.00
68855;BME280;69984;-43.570;172.580;2024-03-07T12:20:46;101136.72;;;15.76;100.00
68855;BME280;69984;-43.570;172.580;2024-03-07T12:23:22;101149.66;;;15.63;100.00
68855;BME280;69984;-43.570;172.580;2024-03-07T12:26:01;101139.41;;;15.44;100.00
68855;BME280;69984;-43.570;172.580;2024-03-07T12:28:29;101146.84;;;15.40;100.00
68855;BME280;69984;-43.570;172.580;2024-03-07T12:31:03;101151.97;;;15.34;100.00
68855;BME280;69984;-43.570;172.580;2024-03-07T12:33:32;101168.63;;;15.26;100.00
68855;BME280;69984;-43.570;172.580;2024-03-07T12:36:05;101184.13;;;15.21;100.00
68855;BME280;69984;-43.570;172.580;2024-03-07T12:38:32;101183.78;;;15.24;100.00